sensor_id;sensor_type;location;lat;lon;timestamp;P1;durP1;ratioP1;P2;durP2;ratioP2
18653;SDS011;9456;47.824;16.228;2024-01-15T00:02:03;11.80;;;9.90;;
18653;SDS011;9456;47.824;16.228;2024-01-15T00:04:32;11.23;;;8.93;;
18653;SDS011;9456;47.824;16.228;2024-01-15T00:07:00;13.97;;;8.93;;
18653;SDS011;9456;47.824;16.228;2024-01-15T00:09:28;11.73;;;9.17;;
18653;SDS011;9456;47.824;16.228;2024-01-15T00:11:56;12.27;;;9.33;;
18653;SDS011;9456;47.824;16.228;2024-01-15T00:14:24;11.90;;;9.40;;
18653;SDS011;9456;47.824;16.228;2024-01-15T00:16:52;11.97;;;9.20;;
18653;SDS011;9456;47.824;16.228;2024-01-15T00:19:20;10.63;;;9.17;;
18653;SDS011;9456;47.824;16.228;2024-01-15T00:21:48;12.67;;;9.13;;
18653;SDS011;9456;47.824;16.228;2024-01-15T00:24:16;12.23;;;8.90;;
18653;SDS011;9456;47.824;16.228;2024-01-15T00:26:44;13.63;;;9.87;;
18653;SDS011;9456;47.824;16.228;2024-01-15T00:29:12;12.20;;;9.37;;
18653;SDS011;9456;47.824;16.228;2024-01-15T00:31:40;12.60;;;9.07;;
18653;SDS011;9456;47.824;16.228;2024-01-15T00:34:08;12.80;;;9.03;;
18653;SDS011;9456;47.824;16.228;2024-01-15T00:36:36;11.63;;;8.57;;
18653;SDS011;9456;47.824;16.228;2024-01-15T00:39:04;12.53;;;9.27;;
18653;SDS011;9456;47.824;16.228;2024-01-15T00:41:32;10.27;;;8.13;;
18653;SDS011;9456;47.824;16.228;2024-01-15T00:44:02;12.33;;;9.33;;
18653;SDS011;9456;47.824;16.228;2024-01-15T00:49:07;13.50;;;8.30;;
18653;SDS011;9456;47.824;16.228;2024-01-15T00:51:35;11.00;;;8.43;;
18653;SDS011;9456;47.824;16.228;2024-01-15T00:54:03;11.90;;;8.47;;
18653;SDS011;9456;47.824;16.228;2024-01-15T00:56:31;9.17;;;7.63;;
18653;SDS011;9456;47.824;16.228;2024-01-15T00:59:00;12.17;;;8.30;;
18653;SDS011;9456;47.824;16.228;2024-01-15T01:01:28;10.77;;;8.90;;
18653;SDS011;9456;47.824;16.228;2024-01-15T01:03:56;9.77;;;8.73;;
18653;SDS011;9456;47.824;16.228;2024-01-15T01:09:28;10.27;;;8.43;;
18653;SDS011;9456;47.824;16.228;2024-01-15T01:11:57;10.07;;;8.00;;
18653;SDS011;9456;47.824;16.228;2024-01-15T01:14:25;11.93;;;8.50;;
18653;SDS011;9456;47.824;16.228;2024-01-15T01:16:53;9.53;;;7.80;;
18653;SDS011;9456;47.824;16.228;2024-01-15T01:19:21;9.57;;;7.83;;
18653;SDS011;9456;47.824;16.228;2024-01-15T01:21:49;10.17;;;8.20;;
18653;SDS011;9456;47.824;16.228;2024-01-15T01:24:18;10.70;;;8.60;;
18653;SDS011;9456;47.824;16.228;2024-01-15T01:26:46;9.27;;;7.83;;
18653;SDS011;9456;47.824;16.228;2024-01-15T01:29:14;9.00;;;7.30;;
18653;SDS011;9456;47.824;16.228;2024-01-15T01:31:45;9.35;;;7.70;;
18653;SDS011;9456;47.824;16.228;2024-01-15T01:34:14;9.30;;;7.87;;
18653;SDS011;9456;47.824;16.228;2024-01-15T01:36:41;9.43;;;7.40;;
18653;SDS011;9456;47.824;16.228;2024-01-15T01:39:10;10.97;;;8.50;;
18653;SDS011;9456;47.824;16.228;2024-01-15T01:41:39;12.03;;;9.20;;
18653;SDS011;9456;47.824;16.228;2024-01-15T01:44:07;13.57;;;7.43;;
18653;SDS011;9456;47.824;16.228;2024-01-15T01:46:35;9.37;;;8.00;;
18653;SDS011;9456;47.824;16.228;2024-01-15T01:49:03;8.90;;;7.27;;
18653;SDS011;9456;47.824;16.228;2024-01-15T01:51:31;8.87;;;7.37;;
18653;SDS011;9456;47.824;16.228;2024-01-15T01:53:59;7.77;;;6.60;;
18653;SDS011;9456;47.824;16.228;2024-01-15T01:56:27;10.37;;;7.53;;
18653;SDS011;9456;47.824;16.228;2024-01-15T01:58:55;8.33;;;7.47;;
18653;SDS011;9456;47.824;16.228;2024-01-15T02:01:23;8.13;;;7.07;;
18653;SDS011;9456;47.824;16.228;2024-01-15T02:03:51;8.60;;;7.70;;
18653;SDS011;9456;47.824;16.228;2024-01-15T02:06:19;10.33;;;8.10;;
18653;SDS011;9456;47.824;16.228;2024-01-15T02:08:47;10.67;;;8.00;;
18653;SDS011;9456;47.824;16.228;2024-01-15T02:11:23;11.13;;;8.23;;
18653;SDS011;9456;47.824;16.228;2024-01-15T02:13:51;11.17;;;7.97;;
18653;SDS011;9456;47.824;16.228;2024-01-15T02:16:19;8.47;;;7.57;;
18653;SDS011;9456;47.824;16.228;2024-01-15T02:18:47;10.43;;;8.43;;
18653;SDS011;9456;47.824;16.228;2024-01-15T02:21:15;8.63;;;7.50;;
18653;SDS011;9456;47.824;16.228;2024-01-15T02:23:43;10.27;;;7.13;;
18653;SDS011;9456;47.824;16.228;2024-01-15T02:28:58;9.27;;;7.20;;
18653;SDS011;9456;47.824;16.228;2024-01-15T02:31:26;11.10;;;8.17;;
18653;SDS011;9456;47.824;16.228;2024-01-15T02:33:54;9.07;;;6.97;;
18653;SDS011;9456;47.824;16.228;2024-01-15T02:36:22;7.00;;;6.00;;
18653;SDS011;9456;47.824;16.228;2024-01-15T02:38:53;9.10;;;6.60;;
18653;SDS011;9456;47.824;16.228;2024-01-15T02:41:21;8.37;;;6.57;;
18653;SDS011;9456;47.824;16.228;2024-01-15T02:43:49;8.87;;;6.70;;
18653;SDS011;9456;47.824;16.228;2024-01-15T02:46:17;8.67;;;5.97;;
18653;SDS011;9456;47.824;16.228;2024-01-15T02:48:45;6.93;;;6.10;;
18653;SDS011;9456;47.824;16.228;2024-01-15T02:51:13;7.47;;;6.20;;
18653;SDS011;9456;47.824;16.228;2024-01-15T02:56:36;8.80;;;6.67;;
18653;SDS011;9456;47.824;16.228;2024-01-15T02:59:04;7.77;;;6.40;;
18653;SDS011;9456;47.824;16.228;2024-01-15T03:01:32;7.70;;;6.97;;
18653;SDS011;9456;47.824;16.228;2024-01-15T03:04:01;8.67;;;7.00;;
18653;SDS011;9456;47.824;16.228;2024-01-15T03:06:29;7.00;;;5.87;;
18653;SDS011;9456;47.824;16.228;2024-01-15T03:08:57;8.07;;;6.53;;
18653;SDS011;9456;47.824;16.228;2024-01-15T03:11:25;7.90;;;6.43;;
18653;SDS011;9456;47.824;16.228;2024-01-15T03:13:53;6.57;;;5.87;;
18653;SDS011;9456;47.824;16.228;2024-01-15T03:16:21;6.70;;;5.93;;
18653;SDS011;9456;47.824;16.228;2024-01-15T03:18:49;6.23;;;5.63;;
18653;SDS011;9456;47.824;16.228;2024-01-15T03:21:17;7.77;;;5.53;;
18653;SDS011;9456;47.824;16.228;2024-01-15T03:23:45;7.93;;;5.77;;
18653;SDS011;9456;47.824;16.228;2024-01-15T03:26:13;6.07;;;5.43;;
18653;SDS011;9456;47.824;16.228;2024-01-15T03:28:41;8.70;;;7.00;;
18653;SDS011;9456;47.824;16.228;2024-01-15T03:31:11;7.77;;;6.30;;
18653;SDS011;9456;47.824;16.228;2024-01-15T03:33:39;8.93;;;5.90;;
18653;SDS011;9456;47.824;16.228;2024-01-15T03:36:09;5.53;;;4.93;;
18653;SDS011;9456;47.824;16.228;2024-01-15T03:38:40;7.50;;;5.73;;
18653;SDS011;9456;47.824;16.228;2024-01-15T03:41:07;6.63;;;5.73;;
18653;SDS011;9456;47.824;16.228;2024-01-15T03:43:35;8.33;;;6.90;;
18653;SDS011;9456;47.824;16.228;2024-01-15T03:46:03;8.30;;;6.03;;
18653;SDS011;9456;47.824;16.228;2024-01-15T03:48:32;6.93;;;6.07;;
18653;SDS011;9456;47.824;16.228;2024-01-15T03:51:00;8.07;;;5.80;;
18653;SDS011;9456;47.824;16.228;2024-01-15T03:53:28;6.13;;;5.53;;
18653;SDS011;9456;47.824;16.228;2024-01-15T03:55:56;7.23;;;6.20;;
18653;SDS011;9456;47.824;16.228;2024-01-15T03:58:24;7.87;;;6.17;;
18653;SDS011;9456;47.824;16.228;2024-01-15T04:00:52;7.73;;;6.00;;
18653;SDS011;9456;47.824;16.228;2024-01-15T04:03:20;6.50;;;5.90;;
18653;SDS011;9456;47.824;16.228;2024-01-15T04:05:48;7.47;;;6.37;;
18653;SDS011;9456;47.824;16.228;2024-01-15T04:08:16;7.73;;;5.80;;
18653;SDS011;9456;47.824;16.228;2024-01-15T04:10:44;7.87;;;5.57;;
18653;SDS011;9456;47.824;16.228;2024-01-15T04:13:12;6.83;;;5.50;;
18653;SDS011;9456;47.824;16.228;2024-01-15T04:15:40;8.47;;;6.33;;
18653;SDS011;9456;47.824;16.228;2024-01-15T04:18:08;6.80;;;5.40;;
18653;SDS011;9456;47.824;16.228;2024-01-15T04:20:36;6.23;;;4.90;;
18653;SDS011;9456;47.824;16.228;2024-01-15T04:23:04;6.27;;;5.20;;
18653;SDS011;9456;47.824;16.228;2024-01-15T04:25:32;5.97;;;5.00;;
18653;SDS011;9456;47.824;16.228;2024-01-15T04:28:00;6.00;;;5.40;;
18653;SDS011;9456;47.824;16.228;2024-01-15T04:30:28;6.10;;;4.63;;
18653;SDS011;9456;47.824;16.228;2024-01-15T04:32:56;8.80;;;5.93;;
18653;SDS011;9456;47.824;16.228;2024-01-15T04:35:24;10.70;;;6.57;;
18653;SDS011;9456;47.824;16.228;2024-01-15T04:37:53;6.43;;;5.40;;
18653;SDS011;9456;47.824;16.228;2024-01-15T04:40:21;7.37;;;5.37;;
18653;SDS011;9456;47.824;16.228;2024-01-15T04:42:49;6.07;;;5.17;;
18653;SDS011;9456;47.824;16.228;2024-01-15T04:45:17;6.20;;;5.10;;
18653;SDS011;9456;47.824;16.228;2024-01-15T04:47:46;6.73;;;5.27;;
18653;SDS011;9456;47.824;16.228;2024-01-15T04:50:14;7.00;;;5.43;;
18653;SDS011;9456;47.824;16.228;2024-01-15T04:52:42;6.33;;;4.77;;
18653;SDS011;9456;47.824;16.228;2024-01-15T04:55:10;9.30;;;7.47;;
18653;SDS011;9456;47.824;16.228;2024-01-15T04:57:38;5.53;;;4.70;;
18653;SDS011;9456;47.824;16.228;2024-01-15T05:00:07;6.10;;;5.07;;
18653;SDS011;9456;47.824;16.228;2024-01-15T05:02:35;6.37;;;4.80;;
18653;SDS011;9456;47.824;16.228;2024-01-15T05:05:04;5.40;;;4.90;;
18653;SDS011;9456;47.824;16.228;2024-01-15T05:07:32;5.97;;;4.73;;
18653;SDS011;9456;47.824;16.228;2024-01-15T05:10:00;6.63;;;6.03;;
18653;SDS011;9456;47.824;16.228;2024-01-15T05:12:28;9.07;;;8.20;;
18653;SDS011;9456;47.824;16.228;2024-01-15T05:14:56;5.87;;;5.27;;
18653;SDS011;9456;47.824;16.228;2024-01-15T05:17:24;5.40;;;4.50;;
18653;SDS011;9456;47.824;16.228;2024-01-15T05:19:52;7.97;;;6.40;;
18653;SDS011;9456;47.824;16.228;2024-01-15T05:22:20;4.80;;;4.30;;
18653;SDS011;9456;47.824;16.228;2024-01-15T05:24:48;4.30;;;3.43;;
18653;SDS011;9456;47.824;16.228;2024-01-15T05:27:16;2.30;;;2.20;;
18653;SDS011;9456;47.824;16.228;2024-01-15T05:29:48;1.70;;;1.60;;
18653;SDS011;9456;47.824;16.228;2024-01-15T05:32:16;2.67;;;2.47;;
18653;SDS011;9456;47.824;16.228;2024-01-15T05:34:44;2.10;;;1.90;;
18653;SDS011;9456;47.824;16.228;2024-01-15T05:37:12;2.60;;;2.40;;
18653;SDS011;9456;47.824;16.228;2024-01-15T05:39:40;2.43;;;2.23;;
18653;SDS011;9456;47.824;16.228;2024-01-15T05:42:08;1.90;;;1.80;;
18653;SDS011;9456;47.824;16.228;2024-01-15T05:44:36;2.50;;;2.30;;
18653;SDS011;9456;47.824;16.228;2024-01-15T05:47:04;1.90;;;1.80;;
18653;SDS011;9456;47.824;16.228;2024-01-15T05:49:32;1.60;;;1.50;;
18653;SDS011;9456;47.824;16.228;2024-01-15T05:52:00;1.70;;;1.60;;
18653;SDS011;9456;47.824;16.228;2024-01-15T05:54:29;1.87;;;1.77;;
18653;SDS011;9456;47.824;16.228;2024-01-15T05:56:57;1.80;;;1.70;;
18653;SDS011;9456;47.824;16.228;2024-01-15T05:59:25;1.67;;;1.57;;
18653;SDS011;9456;47.824;16.228;2024-01-15T06:01:53;1.70;;;1.60;;
18653;SDS011;9456;47.824;16.228;2024-01-15T06:04:21;1.50;;;1.40;;
18653;SDS011;9456;47.824;16.228;2024-01-15T06:06:49;2.07;;;1.50;;
18653;SDS011;9456;47.824;16.228;2024-01-15T06:09:17;1.40;;;1.30;;
18653;SDS011;9456;47.824;16.228;2024-01-15T06:11:45;1.40;;;1.30;;
18653;SDS011;9456;47.824;16.228;2024-01-15T06:14:13;1.40;;;1.30;;
18653;SDS011;9456;47.824;16.228;2024-01-15T06:16:41;1.40;;;1.30;;
18653;SDS011;9456;47.824;16.228;2024-01-15T06:19:09;1.47;;;1.37;;
18653;SDS011;9456;47.824;16.228;2024-01-15T06:21:37;1.50;;;1.40;;
18653;SDS011;9456;47.824;16.228;2024-01-15T06:24:06;1.60;;;1.50;;
18653;SDS011;9456;47.824;16.228;2024-01-15T06:29:13;1.50;;;1.40;;
18653;SDS011;9456;47.824;16.228;2024-01-15T06:31:42;1.50;;;1.40;;
18653;SDS011;9456;47.824;16.228;2024-01-15T06:34:10;1.60;;;1.50;;
18653;SDS011;9456;47.824;16.228;2024-01-15T06:36:38;1.20;;;1.20;;
18653;SDS011;9456;47.824;16.228;2024-01-15T06:39:07;1.50;;;1.40;;
18653;SDS011;9456;47.824;16.228;2024-01-15T06:41:35;1.53;;;1.43;;
18653;SDS011;9456;47.824;16.228;2024-01-15T06:44:03;1.30;;;1.20;;
18653;SDS011;9456;47.824;16.228;2024-01-15T06:46:31;1.20;;;1.20;;
18653;SDS011;9456;47.824;16.228;2024-01-15T06:48:59;1.30;;;1.23;;
18653;SDS011;9456;47.824;16.228;2024-01-15T06:51:28;1.40;;;1.30;;
18653;SDS011;9456;47.824;16.228;2024-01-15T06:53:56;1.63;;;1.40;;
18653;SDS011;9456;47.824;16.228;2024-01-15T06:56:24;1.70;;;1.43;;
18653;SDS011;9456;47.824;16.228;2024-01-15T06:58:52;1.30;;;1.30;;
18653;SDS011;9456;47.824;16.228;2024-01-15T07:01:20;2.23;;;1.43;;
18653;SDS011;9456;47.824;16.228;2024-01-15T07:03:48;1.20;;;1.20;;
18653;SDS011;9456;47.824;16.228;2024-01-15T07:06:16;1.37;;;1.27;;
18653;SDS011;9456;47.824;16.228;2024-01-15T07:08:44;1.13;;;1.13;;
18653;SDS011;9456;47.824;16.228;2024-01-15T07:11:12;1.20;;;1.20;;
18653;SDS011;9456;47.824;16.228;2024-01-15T07:13:40;1.20;;;1.20;;
18653;SDS011;9456;47.824;16.228;2024-01-15T07:16:08;1.20;;;1.20;;
18653;SDS011;9456;47.824;16.228;2024-01-15T07:18:36;1.50;;;1.40;;
18653;SDS011;9456;47.824;16.228;2024-01-15T07:21:05;1.13;;;1.13;;
18653;SDS011;9456;47.824;16.228;2024-01-15T07:23:40;1.43;;;1.33;;
18653;SDS011;9456;47.824;16.228;2024-01-15T07:26:08;1.50;;;1.40;;
18653;SDS011;9456;47.824;16.228;2024-01-15T07:28:36;1.17;;;1.13;;
18653;SDS011;9456;47.824;16.228;2024-01-15T07:31:04;2.37;;;1.40;;
18653;SDS011;9456;47.824;16.228;2024-01-15T07:33:32;1.53;;;1.30;;
18653;SDS011;9456;47.824;16.228;2024-01-15T07:36:00;2.00;;;1.20;;
18653;SDS011;9456;47.824;16.228;2024-01-15T07:38:28;2.10;;;1.20;;
18653;SDS011;9456;47.824;16.228;2024-01-15T07:40:56;1.40;;;1.20;;
18653;SDS011;9456;47.824;16.228;2024-01-15T07:43:24;2.57;;;1.20;;
18653;SDS011;9456;47.824;16.228;2024-01-15T07:45:52;1.47;;;1.20;;
18653;SDS011;9456;47.824;16.228;2024-01-15T07:48:20;0.87;;;0.87;;
18653;SDS011;9456;47.824;16.228;2024-01-15T07:50:48;1.10;;;1.10;;
18653;SDS011;9456;47.824;16.228;2024-01-15T07:53:16;2.53;;;1.30;;
18653;SDS011;9456;47.824;16.228;2024-01-15T07:55:44;5.20;;;1.70;;
18653;SDS011;9456;47.824;16.228;2024-01-15T07:58:12;1.30;;;1.20;;
18653;SDS011;9456;47.824;16.228;2024-01-15T08:00:40;1.33;;;1.23;;
18653;SDS011;9456;47.824;16.228;2024-01-15T08:03:15;1.43;;;1.33;;
18653;SDS011;9456;47.824;16.228;2024-01-15T08:05:42;1.40;;;1.30;;
18653;SDS011;9456;47.824;16.228;2024-01-15T08:08:10;1.10;;;1.10;;
18653;SDS011;9456;47.824;16.228;2024-01-15T08:10:38;1.20;;;1.20;;
18653;SDS011;9456;47.824;16.228;2024-01-15T08:13:06;1.10;;;1.10;;
18653;SDS011;9456;47.824;16.228;2024-01-15T08:15:34;1.43;;;1.33;;
18653;SDS011;9456;47.824;16.228;2024-01-15T08:18:03;1.23;;;1.13;;
18653;SDS011;9456;47.824;16.228;2024-01-15T08:23:07;1.00;;;1.00;;
18653;SDS011;9456;47.824;16.228;2024-01-15T08:25:35;1.30;;;1.20;;
18653;SDS011;9456;47.824;16.228;2024-01-15T08:28:04;3.13;;;1.20;;
18653;SDS011;9456;47.824;16.228;2024-01-15T08:30:32;0.93;;;0.93;;
18653;SDS011;9456;47.824;16.228;2024-01-15T08:33:00;0.93;;;0.93;;
18653;SDS011;9456;47.824;16.228;2024-01-15T08:35:28;1.10;;;1.10;;
18653;SDS011;9456;47.824;16.228;2024-01-15T08:37:56;1.13;;;1.13;;
18653;SDS011;9456;47.824;16.228;2024-01-15T08:40:24;1.10;;;1.10;;
18653;SDS011;9456;47.824;16.228;2024-01-15T08:42:52;1.27;;;1.20;;
18653;SDS011;9456;47.824;16.228;2024-01-15T08:45:20;3.33;;;1.20;;
18653;SDS011;9456;47.824;16.228;2024-01-15T08:47:48;0.93;;;0.93;;
18653;SDS011;9456;47.824;16.228;2024-01-15T08:50:16;1.20;;;1.20;;
18653;SDS011;9456;47.824;16.228;2024-01-15T08:52:44;1.50;;;1.40;;
18653;SDS011;9456;47.824;16.228;2024-01-15T08:55:12;1.20;;;1.10;;
18653;SDS011;9456;47.824;16.228;2024-01-15T08:57:40;1.17;;;1.10;;
18653;SDS011;9456;47.824;16.228;2024-01-15T09:00:10;2.60;;;1.30;;
18653;SDS011;9456;47.824;16.228;2024-01-15T09:02:38;1.23;;;1.13;;
18653;SDS011;9456;47.824;16.228;2024-01-15T09:05:06;1.13;;;1.13;;
18653;SDS011;9456;47.824;16.228;2024-01-15T09:07:34;1.40;;;1.00;;
18653;SDS011;9456;47.824;16.228;2024-01-15T09:10:02;1.30;;;1.20;;
18653;SDS011;9456;47.824;16.228;2024-01-15T09:12:30;1.00;;;1.00;;
18653;SDS011;9456;47.824;16.228;2024-01-15T09:14:58;1.43;;;1.20;;
18653;SDS011;9456;47.824;16.228;2024-01-15T09:17:33;1.00;;;1.00;;
18653;SDS011;9456;47.824;16.228;2024-01-15T09:20:01;0.83;;;0.83;;
18653;SDS011;9456;47.824;16.228;2024-01-15T09:22:30;0.83;;;0.83;;
18653;SDS011;9456;47.824;16.228;2024-01-15T09:24:58;1.10;;;1.10;;
18653;SDS011;9456;47.824;16.228;2024-01-15T09:27:26;0.90;;;0.90;;
18653;SDS011;9456;47.824;16.228;2024-01-15T09:29:54;1.57;;;1.30;;
18653;SDS011;9456;47.824;16.228;2024-01-15T09:32:22;1.03;;;1.03;;
18653;SDS011;9456;47.824;16.228;2024-01-15T09:34:50;0.90;;;0.90;;
18653;SDS011;9456;47.824;16.228;2024-01-15T09:37:18;0.90;;;0.90;;
18653;SDS011;9456;47.824;16.228;2024-01-15T09:39:46;1.17;;;1.00;;
18653;SDS011;9456;47.824;16.228;2024-01-15T09:42:15;1.10;;;1.10;;
18653;SDS011;9456;47.824;16.228;2024-01-15T09:44:43;0.80;;;0.80;;
18653;SDS011;9456;47.824;16.228;2024-01-15T09:47:11;1.00;;;1.00;;
18653;SDS011;9456;47.824;16.228;2024-01-15T09:49:39;3.10;;;1.10;;
18653;SDS011;9456;47.824;16.228;2024-01-15T09:52:07;1.53;;;1.20;;
18653;SDS011;9456;47.824;16.228;2024-01-15T09:54:35;1.10;;;1.10;;
18653;SDS011;9456;47.824;16.228;2024-01-15T09:57:03;1.03;;;1.03;;
18653;SDS011;9456;47.824;16.228;2024-01-15T09:59:31;0.80;;;0.80;;
18653;SDS011;9456;47.824;16.228;2024-01-15T10:01:59;2.77;;;1.13;;
18653;SDS011;9456;47.824;16.228;2024-01-15T10:04:27;0.60;;;0.60;;
18653;SDS011;9456;47.824;16.228;2024-01-15T10:06:55;2.20;;;1.00;;
18653;SDS011;9456;47.824;16.228;2024-01-15T10:09:23;0.80;;;0.80;;
18653;SDS011;9456;47.824;16.228;2024-01-15T10:11:51;0.90;;;0.90;;
18653;SDS011;9456;47.824;16.228;2024-01-15T10:16:56;1.23;;;1.13;;
18653;SDS011;9456;47.824;16.228;2024-01-15T10:19:24;1.03;;;1.03;;
18653;SDS011;9456;47.824;16.228;2024-01-15T10:21:52;3.10;;;1.20;;
18653;SDS011;9456;47.824;16.228;2024-01-15T10:24:20;0.93;;;0.93;;
18653;SDS011;9456;47.824;16.228;2024-01-15T10:26:48;4.60;;;1.20;;
18653;SDS011;9456;47.824;16.228;2024-01-15T10:29:16;0.97;;;0.97;;
18653;SDS011;9456;47.824;16.228;2024-01-15T10:31:44;1.00;;;1.00;;
18653;SDS011;9456;47.824;16.228;2024-01-15T10:34:13;1.70;;;1.57;;
18653;SDS011;9456;47.824;16.228;2024-01-15T10:36:40;1.47;;;1.37;;
18653;SDS011;9456;47.824;16.228;2024-01-15T10:39:08;4.70;;;2.80;;
18653;SDS011;9456;47.824;16.228;2024-01-15T10:41:36;1.10;;;1.00;;
18653;SDS011;9456;47.824;16.228;2024-01-15T10:44:04;0.90;;;0.90;;
18653;SDS011;9456;47.824;16.228;2024-01-15T10:46:32;1.03;;;1.03;;
18653;SDS011;9456;47.824;16.228;2024-01-15T10:49:00;1.33;;;0.90;;
18653;SDS011;9456;47.824;16.228;2024-01-15T10:51:28;0.93;;;0.93;;
18653;SDS011;9456;47.824;16.228;2024-01-15T10:53:56;1.00;;;1.00;;
18653;SDS011;9456;47.824;16.228;2024-01-15T10:56:24;1.00;;;1.00;;
18653;SDS011;9456;47.824;16.228;2024-01-15T10:58:52;0.97;;;0.97;;
18653;SDS011;9456;47.824;16.228;2024-01-15T11:01:20;0.90;;;0.83;;
18653;SDS011;9456;47.824;16.228;2024-01-15T11:03:48;3.90;;;1.13;;
18653;SDS011;9456;47.824;16.228;2024-01-15T11:06:17;0.83;;;0.83;;
18653;SDS011;9456;47.824;16.228;2024-01-15T11:08:45;0.80;;;0.80;;
18653;SDS011;9456;47.824;16.228;2024-01-15T11:11:13;1.10;;;1.10;;
18653;SDS011;9456;47.824;16.228;2024-01-15T11:13:41;0.80;;;0.80;;
18653;SDS011;9456;47.824;16.228;2024-01-15T11:16:10;0.83;;;0.83;;
18653;SDS011;9456;47.824;16.228;2024-01-15T11:18:38;0.70;;;0.70;;
18653;SDS011;9456;47.824;16.228;2024-01-15T11:24:02;0.63;;;0.63;;
18653;SDS011;9456;47.824;16.228;2024-01-15T11:29:06;1.07;;;0.97;;
18653;SDS011;9456;47.824;16.228;2024-01-15T11:34:19;0.80;;;0.80;;
18653;SDS011;9456;47.824;16.228;2024-01-15T11:37:03;1.00;;;1.00;;
18653;SDS011;9456;47.824;16.228;2024-01-15T11:39:40;12.03;;;1.37;;
18653;SDS011;9456;47.824;16.228;2024-01-15T11:42:10;0.80;;;0.80;;
18653;SDS011;9456;47.824;16.228;2024-01-15T11:44:40;0.73;;;0.70;;
18653;SDS011;9456;47.824;16.228;2024-01-15T11:47:09;2.87;;;0.97;;
18653;SDS011;9456;47.824;16.228;2024-01-15T11:49:46;0.80;;;0.80;;
18653;SDS011;9456;47.824;16.228;2024-01-15T11:52:11;1.10;;;0.80;;
18653;SDS011;9456;47.824;16.228;2024-01-15T11:54:39;1.53;;;0.90;;
18653;SDS011;9456;47.824;16.228;2024-01-15T11:57:09;1.10;;;0.80;;
18653;SDS011;9456;47.824;16.228;2024-01-15T11:59:36;0.80;;;0.80;;
18653;SDS011;9456;47.824;16.228;2024-01-15T12:02:05;1.60;;;1.30;;
18653;SDS011;9456;47.824;16.228;2024-01-15T12:04:33;1.13;;;0.90;;
18653;SDS011;9456;47.824;16.228;2024-01-15T12:07:02;0.93;;;0.93;;
18653;SDS011;9456;47.824;16.228;2024-01-15T12:09:30;0.70;;;0.70;;
18653;SDS011;9456;47.824;16.228;2024-01-15T12:12:00;1.27;;;0.80;;
18653;SDS011;9456;47.824;16.228;2024-01-15T12:14:26;0.90;;;0.90;;
18653;SDS011;9456;47.824;16.228;2024-01-15T12:16:57;1.70;;;0.80;;
18653;SDS011;9456;47.824;16.228;2024-01-15T12:19:25;0.87;;;0.80;;
18653;SDS011;9456;47.824;16.228;2024-01-15T12:21:54;0.70;;;0.70;;
18653;SDS011;9456;47.824;16.228;2024-01-15T12:24:21;0.80;;;0.80;;
18653;SDS011;9456;47.824;16.228;2024-01-15T12:26:49;1.00;;;0.90;;
18653;SDS011;9456;47.824;16.228;2024-01-15T12:29:18;0.80;;;0.80;;
18653;SDS011;9456;47.824;16.228;2024-01-15T12:31:47;0.70;;;0.70;;
18653;SDS011;9456;47.824;16.228;2024-01-15T12:34:15;2.23;;;0.70;;
18653;SDS011;9456;47.824;16.228;2024-01-15T12:36:43;1.03;;;0.93;;
18653;SDS011;9456;47.824;16.228;2024-01-15T12:39:12;0.70;;;0.70;;
18653;SDS011;9456;47.824;16.228;2024-01-15T12:41:40;3.07;;;0.70;;
18653;SDS011;9456;47.824;16.228;2024-01-15T12:44:08;1.07;;;1.07;;
18653;SDS011;9456;47.824;16.228;2024-01-15T12:46:37;1.03;;;0.70;;
18653;SDS011;9456;47.824;16.228;2024-01-15T12:49:05;3.83;;;1.17;;
18653;SDS011;9456;47.824;16.228;2024-01-15T12:51:35;1.70;;;1.50;;
18653;SDS011;9456;47.824;16.228;2024-01-15T12:54:03;0.60;;;0.60;;
18653;SDS011;9456;47.824;16.228;2024-01-15T12:56:31;4.07;;;0.70;;
18653;SDS011;9456;47.824;16.228;2024-01-15T12:58:59;0.60;;;0.60;;
18653;SDS011;9456;47.824;16.228;2024-01-15T13:01:27;1.80;;;0.57;;
18653;SDS011;9456;47.824;16.228;2024-01-15T13:04:03;4.33;;;0.60;;
18653;SDS011;9456;47.824;16.228;2024-01-15T13:06:31;1.07;;;1.03;;
18653;SDS011;9456;47.824;16.228;2024-01-15T13:08:59;1.33;;;0.90;;
18653;SDS011;9456;47.824;16.228;2024-01-15T13:11:27;0.57;;;0.57;;
18653;SDS011;9456;47.824;16.228;2024-01-15T13:13:55;3.20;;;0.80;;
18653;SDS011;9456;47.824;16.228;2024-01-15T13:16:23;0.80;;;0.80;;
18653;SDS011;9456;47.824;16.228;2024-01-15T13:18:52;0.70;;;0.70;;
18653;SDS011;9456;47.824;16.228;2024-01-15T13:21:20;0.60;;;0.60;;
18653;SDS011;9456;47.824;16.228;2024-01-15T13:23:48;0.60;;;0.60;;
18653;SDS011;9456;47.824;16.228;2024-01-15T13:26:16;0.70;;;0.70;;
18653;SDS011;9456;47.824;16.228;2024-01-15T13:28:45;0.77;;;0.77;;
18653;SDS011;9456;47.824;16.228;2024-01-15T13:31:13;0.77;;;0.77;;
18653;SDS011;9456;47.824;16.228;2024-01-15T13:33:41;1.60;;;1.50;;
18653;SDS011;9456;47.824;16.228;2024-01-15T13:36:09;0.60;;;0.60;;
18653;SDS011;9456;47.824;16.228;2024-01-15T13:38:37;0.50;;;0.50;;
18653;SDS011;9456;47.824;16.228;2024-01-15T13:41:05;0.60;;;0.60;;
18653;SDS011;9456;47.824;16.228;2024-01-15T13:43:33;0.60;;;0.60;;
18653;SDS011;9456;47.824;16.228;2024-01-15T13:46:01;0.90;;;0.90;;
18653;SDS011;9456;47.824;16.228;2024-01-15T13:48:30;0.73;;;0.70;;
18653;SDS011;9456;47.824;16.228;2024-01-15T13:51:00;0.50;;;0.50;;
18653;SDS011;9456;47.824;16.228;2024-01-15T13:53:28;1.90;;;0.73;;
18653;SDS011;9456;47.824;16.228;2024-01-15T13:55:56;0.60;;;0.60;;
18653;SDS011;9456;47.824;16.228;2024-01-15T13:58:24;0.80;;;0.50;;
18653;SDS011;9456;47.824;16.228;2024-01-15T14:03:29;0.90;;;0.90;;
18653;SDS011;9456;47.824;16.228;2024-01-15T14:05:57;0.63;;;0.63;;
18653;SDS011;9456;47.824;16.228;2024-01-15T14:08:25;0.90;;;0.90;;
18653;SDS011;9456;47.824;16.228;2024-01-15T14:10:53;0.70;;;0.70;;
18653;SDS011;9456;47.824;16.228;2024-01-15T14:13:21;4.07;;;0.87;;
18653;SDS011;9456;47.824;16.228;2024-01-15T14:15:49;0.80;;;0.70;;
18653;SDS011;9456;47.824;16.228;2024-01-15T14:18:17;0.87;;;0.80;;
18653;SDS011;9456;47.824;16.228;2024-01-15T14:20:45;0.73;;;0.73;;
18653;SDS011;9456;47.824;16.228;2024-01-15T14:23:13;0.60;;;0.60;;
18653;SDS011;9456;47.824;16.228;2024-01-15T14:25:41;0.80;;;0.80;;
18653;SDS011;9456;47.824;16.228;2024-01-15T14:28:09;0.80;;;0.80;;
18653;SDS011;9456;47.824;16.228;2024-01-15T14:30:37;0.70;;;0.70;;
18653;SDS011;9456;47.824;16.228;2024-01-15T14:33:05;0.60;;;0.60;;
18653;SDS011;9456;47.824;16.228;2024-01-15T14:35:33;0.60;;;0.60;;
18653;SDS011;9456;47.824;16.228;2024-01-15T14:38:01;1.60;;;1.50;;
18653;SDS011;9456;47.824;16.228;2024-01-15T14:40:29;0.70;;;0.70;;
18653;SDS011;9456;47.824;16.228;2024-01-15T14:42:57;1.00;;;0.80;;
18653;SDS011;9456;47.824;16.228;2024-01-15T14:45:25;0.63;;;0.60;;
18653;SDS011;9456;47.824;16.228;2024-01-15T14:47:53;0.60;;;0.60;;
18653;SDS011;9456;47.824;16.228;2024-01-15T14:50:21;0.60;;;0.60;;
18653;SDS011;9456;47.824;16.228;2024-01-15T14:52:49;0.90;;;0.90;;
18653;SDS011;9456;47.824;16.228;2024-01-15T14:55:17;1.07;;;0.90;;
18653;SDS011;9456;47.824;16.228;2024-01-15T14:57:45;0.63;;;0.63;;
18653;SDS011;9456;47.824;16.228;2024-01-15T15:00:14;0.50;;;0.50;;
18653;SDS011;9456;47.824;16.228;2024-01-15T15:02:42;1.00;;;1.00;;
18653;SDS011;9456;47.824;16.228;2024-01-15T15:05:10;1.00;;;1.00;;
18653;SDS011;9456;47.824;16.228;2024-01-15T15:07:38;3.63;;;2.37;;
18653;SDS011;9456;47.824;16.228;2024-01-15T15:10:09;0.50;;;0.50;;
18653;SDS011;9456;47.824;16.228;2024-01-15T15:12:37;1.10;;;1.10;;
18653;SDS011;9456;47.824;16.228;2024-01-15T15:15:06;2.20;;;0.90;;
18653;SDS011;9456;47.824;16.228;2024-01-15T15:17:34;0.90;;;0.90;;
18653;SDS011;9456;47.824;16.228;2024-01-15T15:20:02;0.83;;;0.83;;
18653;SDS011;9456;47.824;16.228;2024-01-15T15:22:30;0.53;;;0.53;;